createdAt,value
2022-08-23T00:01:40.443Z,48.96
2022-08-23T00:04:12.310Z,49.34
2022-08-23T00:06:40.370Z,49.46
2022-08-23T00:09:11.070Z,49.73
2022-08-23T00:11:42.056Z,49.50
2022-08-23T00:14:12.597Z,49.33
2022-08-23T00:16:42.588Z,49.68
2022-08-23T00:19:13.251Z,49.53
2022-08-23T00:21:42.554Z,49.67
2022-08-23T00:24:14.142Z,49.96
2022-08-23T00:26:57.606Z,50.69
2022-08-23T00:29:28.424Z,51.30
2022-08-23T00:31:56.809Z,52.05
2022-08-23T00:34:25.374Z,52.46
2022-08-23T00:36:53.413Z,52.98
2022-08-23T00:39:23.082Z,53.17
2022-08-23T00:41:52.025Z,53.40
2022-08-23T00:44:42.640Z,53.77
2022-08-23T00:47:31.259Z,54.15
2022-08-23T00:50:19.317Z,54.29
2022-08-23T00:53:03.669Z,54.74
2022-08-23T00:55:35.243Z,55.18
2022-08-23T00:58:04.286Z,55.47
2022-08-23T01:00:35.119Z,55.67
2022-08-23T01:03:07.152Z,55.31
2022-08-23T01:05:47.743Z,55.39
2022-08-23T01:08:15.980Z,55.85
2022-08-23T01:10:52.746Z,56.16
2022-08-23T01:13:31.308Z,56.01
2022-08-23T01:16:03.842Z,55.91
2022-08-23T01:18:33.270Z,56.01
2022-08-23T01:21:10.578Z,56.12
2022-08-23T01:23:46.490Z,56.02
2022-08-23T01:26:21.658Z,55.90
2022-08-23T01:28:52.166Z,55.79
2022-08-23T01:31:22.333Z,55.70
2022-08-23T01:34:00.173Z,55.89
2022-08-23T01:36:29.168Z,56.22
2022-08-23T01:38:59.318Z,56.39
2022-08-23T01:41:27.535Z,56.56
2022-08-23T01:43:56.115Z,56.44
2022-08-23T01:46:30.113Z,56.61
2022-08-23T01:48:58.652Z,56.57
2022-08-23T01:51:30.761Z,56.24
2022-08-23T01:54:01.193Z,56.46
2022-08-23T01:56:39.291Z,56.51
2022-08-23T01:59:13.955Z,56.33
2022-08-23T02:01:47.558Z,56.20
2022-08-23T02:04:16.846Z,56.24
2022-08-23T02:06:45.142Z,56.50
2022-08-23T02:09:18.965Z,56.82
2022-08-23T02:11:48.761Z,57.33
2022-08-23T02:14:20.413Z,57.57
2022-08-23T02:17:04.460Z,57.42
2022-08-23T02:19:35.021Z,57.55
2022-08-23T02:22:05.298Z,58.14
2022-08-23T02:24:35.667Z,58.05
2022-08-23T02:27:06.272Z,57.81
2022-08-23T02:29:39.374Z,57.97
2022-08-23T02:32:11.010Z,57.78
2022-08-23T02:34:41.451Z,58.18
2022-08-23T02:37:13.104Z,58.31
2022-08-23T02:39:44.383Z,58.22
2022-08-23T02:42:14.552Z,58.26
2022-08-23T02:44:44.856Z,58.51
2022-08-23T02:47:12.892Z,59.09
2022-08-23T02:49:46.194Z,58.87
2022-08-23T02:52:14.432Z,59.08
2022-08-23T02:54:45.461Z,59.11
2022-08-23T02:57:13.393Z,58.94
2022-08-23T02:59:42.145Z,59.09
2022-08-23T03:02:10.298Z,59.47
2022-08-23T03:04:42.732Z,59.71
2022-08-23T03:07:10.883Z,60.04
2022-08-23T03:09:39.595Z,61.31
2022-08-23T03:12:10.941Z,61.94
2022-08-23T03:14:44.803Z,61.48
2022-08-23T03:17:14.602Z,61.77
2022-08-23T03:19:42.566Z,61.64
2022-08-23T03:22:11.216Z,62.29
2022-08-23T03:24:39.430Z,62.11
2022-08-23T03:27:09.348Z,62.47
2022-08-23T03:29:38.741Z,62.43
2022-08-23T03:32:07.398Z,62.63
2022-08-23T03:34:40.621Z,63.08
2022-08-23T03:37:10.529Z,63.12
2022-08-23T03:39:39.097Z,62.92
2022-08-23T03:42:09.554Z,62.83
2022-08-23T03:44:38.020Z,62.96
2022-08-23T03:47:07.267Z,63.11
2022-08-23T03:49:36.369Z,62.46
2022-08-23T03:52:05.880Z,62.28
2022-08-23T03:54:34.171Z,62.34
2022-08-23T03:57:08.614Z,62.45
2022-08-23T03:59:40.647Z,62.51
2022-08-23T04:02:11.183Z,62.76
2022-08-23T04:04:40.799Z,63.35
2022-08-23T04:07:28.190Z,63.70
2022-08-23T04:09:59.348Z,63.69
2022-08-23T04:12:32.827Z,63.54
2022-08-23T04:15:02.769Z,64.04
2022-08-23T04:17:34.400Z,64.17
2022-08-23T04:20:03.724Z,64.22
2022-08-23T04:22:34.903Z,64.52
2022-08-23T04:25:03.658Z,64.51
2022-08-23T04:27:33.106Z,64.56
2022-08-23T04:30:02.687Z,64.73
2022-08-23T04:32:31.276Z,64.39
2022-08-23T04:35:03.250Z,64.08
2022-08-23T04:37:31.674Z,63.77
2022-08-23T04:40:17.215Z,63.77
2022-08-23T04:42:45.503Z,63.97
2022-08-23T04:45:16.108Z,64.08
2022-08-23T04:47:48.079Z,63.85
2022-08-23T04:50:17.151Z,63.64
2022-08-23T04:53:11.899Z,63.31
2022-08-23T04:55:52.505Z,63.43
2022-08-23T04:58:21.354Z,63.61
2022-08-23T05:00:53.092Z,63.17
2022-08-23T05:03:27.133Z,62.87
2022-08-23T05:05:58.268Z,62.77
2022-08-23T05:08:33.189Z,62.77
2022-08-23T05:11:05.099Z,62.77
2022-08-23T05:13:36.764Z,63.14
2022-08-23T05:16:09.926Z,62.53
2022-08-23T05:18:43.895Z,61.26
2022-08-23T05:21:16.069Z,60.25
2022-08-23T05:23:45.477Z,59.08
2022-08-23T05:26:23.239Z,57.16
2022-08-23T05:28:51.858Z,56.16
2022-08-23T05:31:29.532Z,56.15
2022-08-23T05:34:03.877Z,55.23
2022-08-23T05:36:55.972Z,54.55
2022-08-23T05:39:37.023Z,55.06
2022-08-23T05:42:08.993Z,55.66
2022-08-23T05:44:38.024Z,55.86
2022-08-23T05:47:15.089Z,55.40
2022-08-23T05:50:02.987Z,55.20
2022-08-23T05:52:35.453Z,54.73
2022-08-23T05:55:03.876Z,54.14
2022-08-23T05:58:04.525Z,53.48
2022-08-23T06:00:40.412Z,53.88
2022-08-23T06:03:11.669Z,53.80
2022-08-23T06:05:41.849Z,53.59
2022-08-23T06:08:11.767Z,52.38
2022-08-23T06:10:42.371Z,52.36
2022-08-23T06:13:34.336Z,51.61
2022-08-23T06:16:14.154Z,51.50
2022-08-23T06:18:46.623Z,50.61
2022-08-23T06:21:40.806Z,48.96
2022-08-23T06:24:09.420Z,48.50
2022-08-23T06:26:45.906Z,47.11
2022-08-23T06:29:16.587Z,47.50
2022-08-23T06:31:49.377Z,47.03
2022-08-23T06:34:33.490Z,47.94
2022-08-23T06:37:22.036Z,47.72
2022-08-23T06:40:04.977Z,46.55
2022-08-23T06:42:59.720Z,46.58
2022-08-23T06:45:39.852Z,46.32
2022-08-23T06:48:09.735Z,45.98
2022-08-23T06:50:39.257Z,45.76
2022-08-23T06:53:30.533Z,44.81
2022-08-23T06:56:11.750Z,45.19
2022-08-23T06:59:05.951Z,44.18
2022-08-23T07:01:55.300Z,42.79
2022-08-23T07:04:43.868Z,42.39
2022-08-23T07:07:43.911Z,41.77
2022-08-23T07:10:15.139Z,41.27
2022-08-23T07:12:44.063Z,40.93
2022-08-23T07:15:14.322Z,39.75
2022-08-23T07:17:47.378Z,38.14
2022-08-23T07:20:15.972Z,37.54
2022-08-23T07:22:47.272Z,36.38
2022-08-23T07:25:15.562Z,35.32
2022-08-23T07:27:48.951Z,34.29
2022-08-23T07:30:20.421Z,33.44
2022-08-23T07:32:49.157Z,33.09
2022-08-23T07:35:25.016Z,32.15
2022-08-23T07:37:58.507Z,31.32
2022-08-23T07:40:39.195Z,31.36
2022-08-23T07:43:13.178Z,29.80
2022-08-23T07:45:49.020Z,29.32
2022-08-23T07:48:32.009Z,28.49
2022-08-23T07:51:15.061Z,27.56
2022-08-23T07:53:46.135Z,26.18
2022-08-23T07:56:18.716Z,26.15
2022-08-23T07:59:16.831Z,24.75
2022-08-23T08:01:56.796Z,25.21
2022-08-23T08:04:26.089Z,27.89
2022-08-23T08:07:16.806Z,27.34
2022-08-23T08:09:47.372Z,26.87
2022-08-23T08:12:18.239Z,26.47
2022-08-23T08:14:49.369Z,24.54
2022-08-23T08:17:23.114Z,23.68
2022-08-23T08:20:13.512Z,22.36
2022-08-23T08:22:58.549Z,21.86
2022-08-23T08:25:49.152Z,23.66
2022-08-23T08:28:20.442Z,25.30
2022-08-23T08:30:48.819Z,24.97
2022-08-23T08:33:17.308Z,24.95
2022-08-23T08:35:57.795Z,23.43
2022-08-23T08:38:30.591Z,25.99
2022-08-23T08:41:10.646Z,26.82
2022-08-23T08:43:53.926Z,26.38
2022-08-23T08:46:29.715Z,25.90
2022-08-23T08:49:04.832Z,26.64
2022-08-23T08:51:47.402Z,25.36
2022-08-23T08:54:27.274Z,24.58
2022-08-23T08:57:01.301Z,23.34
2022-08-23T08:59:43.862Z,24.16
2022-08-23T09:02:31.911Z,23.83
2022-08-23T09:05:11.038Z,23.58
2022-08-23T09:07:51.713Z,22.80
2022-08-23T09:10:41.245Z,23.59
2022-08-23T09:13:34.879Z,23.39
2022-08-23T09:16:13.632Z,24.31
2022-08-23T09:18:41.798Z,23.94
2022-08-23T09:21:12.195Z,23.65
2022-08-23T09:23:44.200Z,23.25
2022-08-23T09:26:23.303Z,23.27
2022-08-23T09:28:54.986Z,23.37
2022-08-23T09:31:41.999Z,23.69
2022-08-23T09:34:19.440Z,23.01
2022-08-23T09:37:12.606Z,24.86
2022-08-23T09:39:43.625Z,27.52
2022-08-23T09:42:29.745Z,27.86
2022-08-23T09:45:01.339Z,26.04
2022-08-23T09:47:35.806Z,25.91
2022-08-23T09:50:24.360Z,26.28
2022-08-23T09:52:57.459Z,29.71
2022-08-23T09:55:33.242Z,30.61
2022-08-23T09:58:02.871Z,28.14
2022-08-23T10:00:35.779Z,25.64
2022-08-23T10:03:23.494Z,24.76
2022-08-23T10:05:57.078Z,23.97
2022-08-23T10:08:32.848Z,24.62
2022-08-23T10:11:09.151Z,23.01
2022-08-23T10:13:38.105Z,21.82
2022-08-23T10:16:18.225Z,20.49
2022-08-23T10:19:05.407Z,20.71
2022-08-23T10:21:42.722Z,21.09
2022-08-23T10:24:19.824Z,20.21
2022-08-23T10:27:01.454Z,19.01
2022-08-23T10:29:37.475Z,19.02
2022-08-23T10:32:19.128Z,19.08
2022-08-23T10:35:06.495Z,19.88
2022-08-23T10:37:56.938Z,26.08
2022-08-23T10:40:29.708Z,27.02
2022-08-23T10:43:13.887Z,23.90
2022-08-23T10:45:45.836Z,22.62
2022-08-23T10:48:31.928Z,19.24
2022-08-23T10:51:03.888Z,16.21
2022-08-23T10:53:38.596Z,15.12
2022-08-23T10:56:08.222Z,14.57
2022-08-23T10:58:49.344Z,17.60
2022-08-23T11:01:24.415Z,20.97
2022-08-23T11:04:03.796Z,18.95
2022-08-23T11:06:51.107Z,17.85
2022-08-23T11:09:52.760Z,17.43
2022-08-23T11:12:32.133Z,15.75
2022-08-23T11:15:11.850Z,13.77
2022-08-23T11:17:57.046Z,13.36
2022-08-23T11:21:09.023Z,14.78
2022-08-23T11:23:55.340Z,13.10
2022-08-23T11:27:07.526Z,13.72
2022-08-23T11:29:44.300Z,15.06
2022-08-23T11:32:46.698Z,13.70
2022-08-23T11:35:43.336Z,13.21
2022-08-23T11:38:17.301Z,13.71
2022-08-23T11:41:01.129Z,13.08
2022-08-23T11:43:40.134Z,12.24
2022-08-23T11:46:28.061Z,10.78
2022-08-23T11:49:26.110Z,10.73
2022-08-23T11:52:04.182Z,12.02
2022-08-23T11:54:47.474Z,11.52
2022-08-23T12:28:07.551Z,9.83
2022-08-23T12:30:44.443Z,12.18
2022-08-23T12:33:22.989Z,11.24
2022-08-23T12:35:55.721Z,11.08
2022-08-23T12:38:36.690Z,13.71
2022-08-23T12:41:18.865Z,16.57
2022-08-23T12:43:59.251Z,18.13
2022-08-23T12:46:39.593Z,18.05
2022-08-23T12:49:13.285Z,19.32
2022-08-23T12:51:49.650Z,19.21
2022-08-23T12:54:22.542Z,16.68
2022-08-23T12:56:53.347Z,18.08
2022-08-23T12:59:43.570Z,21.80
2022-08-23T13:02:16.336Z,18.33
2022-08-23T13:04:44.246Z,14.91
2022-08-23T13:07:16.453Z,17.11
2022-08-23T13:09:53.947Z,13.74
2022-08-23T13:12:24.644Z,15.61
2022-08-23T13:14:55.524Z,17.55
2022-08-23T13:17:33.676Z,19.33
2022-08-23T13:20:21.919Z,18.30
2022-08-23T13:23:00.241Z,16.95
2022-08-23T13:25:32.317Z,17.28
2022-08-23T13:28:02.359Z,15.76
2022-08-23T13:30:33.907Z,16.41
2022-08-23T13:33:24.202Z,18.70
2022-08-23T13:36:12.944Z,16.87
2022-08-23T13:38:43.813Z,16.66
2022-08-23T13:41:27.601Z,16.05
2022-08-23T13:43:55.951Z,16.90
2022-08-23T13:46:27.574Z,17.49
2022-08-23T13:49:01.496Z,17.21
2022-08-23T13:51:36.782Z,15.18
2022-08-23T13:54:08.679Z,14.65
2022-08-23T13:56:39.311Z,14.00
2022-08-23T13:59:20.587Z,15.18
2022-08-23T14:01:49.889Z,16.36
2022-08-23T14:04:17.682Z,16.28
2022-08-23T14:06:49.030Z,16.36
2022-08-23T14:09:17.428Z,16.61
2022-08-23T14:11:46.223Z,15.14
2022-08-23T14:14:14.116Z,12.99
2022-08-23T14:16:42.789Z,11.61
2022-08-23T14:19:19.141Z,11.03
2022-08-23T14:22:05.833Z,10.24
2022-08-23T14:24:34.124Z,15.57
2022-08-23T14:27:02.542Z,17.98
2022-08-23T14:29:30.715Z,17.02
2022-08-23T14:32:00.294Z,18.15
2022-08-23T14:34:31.288Z,18.36
2022-08-23T14:39:48.186Z,19.43
2022-08-23T14:42:20.575Z,18.23
2022-08-23T14:44:48.603Z,16.71
2022-08-23T14:47:17.471Z,18.18
2022-08-23T14:49:51.997Z,16.42
2022-08-23T14:52:23.176Z,16.31
2022-08-23T14:54:51.569Z,16.44
2022-08-23T14:57:19.435Z,13.84
2022-08-23T14:59:47.567Z,12.09
2022-08-23T15:02:21.925Z,11.41
2022-08-23T15:04:52.136Z,10.76
2022-08-23T15:07:20.115Z,10.17
2022-08-23T15:09:49.245Z,9.76
2022-08-23T15:15:09.410Z,10.70
2022-08-23T15:17:48.273Z,11.69
2022-08-23T15:20:18.205Z,10.87
2022-08-23T15:22:55.300Z,10.30
2022-08-23T15:25:25.482Z,10.67
2022-08-23T15:27:53.766Z,15.43
2022-08-23T15:30:22.899Z,17.87
2022-08-23T15:33:03.662Z,18.53
2022-08-23T15:35:37.787Z,17.23
2022-08-23T15:38:08.054Z,16.65
2022-08-23T15:40:36.582Z,16.39
2022-08-23T15:43:04.869Z,14.71
2022-08-23T15:45:34.421Z,14.50
2022-08-23T15:48:16.603Z,13.71
2022-08-23T15:50:47.518Z,12.34
2022-08-23T15:53:17.237Z,11.21
2022-08-23T15:55:46.853Z,11.43
2022-08-23T15:58:17.662Z,11.80
2022-08-23T16:00:45.887Z,12.10
2022-08-23T16:03:18.649Z,11.01
2022-08-23T16:05:53.588Z,11.09
2022-08-23T16:08:26.252Z,10.99
2022-08-23T16:10:55.047Z,11.75
2022-08-23T16:13:23.306Z,12.49
2022-08-23T16:15:52.330Z,11.87
2022-08-23T16:18:20.640Z,11.42
2022-08-23T16:20:54.531Z,12.90
2022-08-23T16:23:23.299Z,13.22
2022-08-23T16:25:51.669Z,14.92
2022-08-23T16:28:19.616Z,15.35
2022-08-23T16:30:47.954Z,18.75
2022-08-23T16:33:16.479Z,20.05
2022-08-23T16:35:44.489Z,19.70
2022-08-23T16:38:13.978Z,18.23
2022-08-23T16:40:41.948Z,17.98
2022-08-23T16:43:10.051Z,18.50
2022-08-23T16:45:37.911Z,18.15
2022-08-23T16:48:06.255Z,17.91
2022-08-23T16:50:34.567Z,16.76
2022-08-23T16:53:07.273Z,16.77
2022-08-23T16:55:38.164Z,16.28
2022-08-23T16:58:07.803Z,15.15
2022-08-23T17:00:36.695Z,17.37
2022-08-23T17:03:05.863Z,17.25
2022-08-23T17:05:35.947Z,17.75
2022-08-23T17:08:05.111Z,18.54
2022-08-23T17:10:33.652Z,19.18
2022-08-23T17:13:03.860Z,19.38
2022-08-23T17:15:33.975Z,19.05
2022-08-23T17:18:02.043Z,18.40
2022-08-23T17:20:32.714Z,18.87
2022-08-23T17:23:01.029Z,19.66
2022-08-23T17:25:34.475Z,19.50
2022-08-23T17:28:05.081Z,20.95
2022-08-23T17:30:34.512Z,20.40
2022-08-23T17:33:02.879Z,20.50
2022-08-23T17:35:33.662Z,20.24
2022-08-23T17:38:04.720Z,21.01
2022-08-23T17:40:36.343Z,22.00
2022-08-23T17:43:06.487Z,22.09
2022-08-23T17:45:42.637Z,22.34
2022-08-23T17:48:11.448Z,24.21
2022-08-23T17:50:39.565Z,25.14
2022-08-23T17:53:07.913Z,25.66
2022-08-23T17:55:37.629Z,25.83
2022-08-23T17:58:07.710Z,26.08
2022-08-23T18:00:37.576Z,26.95
2022-08-23T18:03:06.410Z,28.22
2022-08-23T18:05:35.944Z,28.97
2022-08-23T18:08:04.436Z,29.44
2022-08-23T18:10:32.474Z,29.54
2022-08-23T18:13:00.947Z,29.74
2022-08-23T18:15:31.684Z,30.13
2022-08-23T18:18:01.131Z,30.54
2022-08-23T18:20:29.993Z,30.60
2022-08-23T18:22:59.777Z,30.92
2022-08-23T18:25:27.981Z,31.14
2022-08-23T18:28:06.898Z,31.23
2022-08-23T18:30:38.903Z,31.81
2022-08-23T18:33:12.491Z,31.49
2022-08-23T18:35:41.175Z,31.59
2022-08-23T18:38:09.727Z,32.41
2022-08-23T18:40:45.257Z,32.74
2022-08-23T18:43:15.073Z,33.17
2022-08-23T18:45:45.341Z,33.37
2022-08-23T18:48:13.673Z,33.71
2022-08-23T18:50:42.997Z,33.92
2022-08-23T18:53:12.540Z,34.06
2022-08-23T18:55:42.308Z,33.80
2022-08-23T18:58:10.548Z,33.89
2022-08-23T19:00:39.782Z,33.97
2022-08-23T19:03:11.038Z,34.11
2022-08-23T19:05:42.238Z,34.81
2022-08-23T19:08:13.478Z,35.64
2022-08-23T19:10:43.924Z,35.79
2022-08-23T19:13:13.069Z,36.49
2022-08-23T19:15:42.010Z,36.72
2022-08-23T19:18:11.174Z,36.74
2022-08-23T19:20:39.115Z,37.45
2022-08-23T19:23:07.615Z,37.78
2022-08-23T19:25:38.428Z,38.09
2022-08-23T19:28:07.056Z,38.63
2022-08-23T19:30:35.326Z,38.74
2022-08-23T19:33:04.796Z,39.04
2022-08-23T19:35:34.841Z,39.20
2022-08-23T19:38:03.191Z,39.63
2022-08-23T19:40:31.364Z,39.63
2022-08-23T19:43:00.589Z,40.11
2022-08-23T19:45:32.025Z,40.33
2022-08-23T19:48:00.548Z,40.21
2022-08-23T19:50:29.567Z,40.54
2022-08-23T19:52:59.540Z,40.39
2022-08-23T19:55:29.180Z,40.73
2022-08-23T19:57:58.294Z,41.28
2022-08-23T20:00:28.735Z,41.50
2022-08-23T20:02:57.076Z,42.24
2022-08-23T20:05:27.329Z,42.68
2022-08-23T20:07:55.685Z,42.73
2022-08-23T20:10:25.448Z,43.51
2022-08-23T20:12:54.017Z,43.50
2022-08-23T20:15:22.312Z,43.88
2022-08-23T20:17:50.410Z,44.32
2022-08-23T20:20:20.746Z,44.97
2022-08-23T20:23:06.039Z,45.08
2022-08-23T20:25:36.716Z,44.87
2022-08-23T20:28:08.295Z,45.22
2022-08-23T20:30:37.685Z,44.96
2022-08-23T20:33:05.582Z,44.84
2022-08-23T20:35:35.267Z,44.75
2022-08-23T20:38:04.519Z,45.04
2022-08-23T20:40:32.731Z,45.36
2022-08-23T20:43:02.674Z,45.12
2022-08-23T20:45:31.156Z,45.57
2022-08-23T20:47:59.544Z,45.50
2022-08-23T20:50:27.442Z,45.85
2022-08-23T20:52:56.607Z,45.96
2022-08-23T20:55:25.167Z,46.02
2022-08-23T20:57:54.776Z,46.26
2022-08-23T21:00:24.506Z,47.15
2022-08-23T21:02:53.351Z,47.43
2022-08-23T21:05:21.363Z,47.35
2022-08-23T21:07:50.095Z,47.68
2022-08-23T21:10:19.763Z,47.98
2022-08-23T21:12:48.441Z,48.68
2022-08-23T21:15:16.250Z,49.32
2022-08-23T21:17:47.673Z,48.89
2022-08-23T21:20:15.686Z,48.71
2022-08-23T21:22:43.991Z,48.56
2022-08-23T21:25:12.463Z,48.37
2022-08-23T21:27:40.675Z,48.00
2022-08-23T21:30:10.442Z,47.77
2022-08-23T21:32:38.841Z,48.12
2022-08-23T21:35:09.563Z,48.64
2022-08-23T21:37:37.431Z,48.49
2022-08-23T21:40:07.548Z,48.53
2022-08-23T21:42:35.736Z,48.51
2022-08-23T21:45:04.511Z,49.01
2022-08-23T21:47:32.315Z,48.80
2022-08-23T21:50:00.344Z,48.91
2022-08-23T21:52:30.239Z,48.75
2022-08-23T21:54:58.251Z,48.73
2022-08-23T21:57:26.310Z,49.21
2022-08-23T21:59:54.319Z,49.94
2022-08-23T22:02:22.740Z,50.16
2022-08-23T22:04:50.729Z,50.39
2022-08-23T22:07:18.588Z,50.15
2022-08-23T22:09:48.642Z,50.00
2022-08-23T22:12:16.993Z,49.38
2022-08-23T22:14:45.572Z,49.30
2022-08-23T22:17:15.225Z,49.55
2022-08-23T22:19:43.131Z,48.86
2022-08-23T22:22:11.439Z,49.29
2022-08-23T22:24:39.483Z,48.93
2022-08-23T22:27:09.163Z,49.14
2022-08-23T22:29:37.729Z,49.90
2022-08-23T22:32:06.080Z,50.93
2022-08-23T22:34:35.569Z,52.49
2022-08-23T22:37:03.458Z,53.23
2022-08-23T22:39:31.676Z,53.49
2022-08-23T22:41:59.539Z,53.45
2022-08-23T22:44:29.669Z,53.62
2022-08-23T22:46:57.957Z,53.29
2022-08-23T22:49:26.271Z,52.86
2022-08-23T22:51:55.466Z,52.29
2022-08-23T22:54:24.750Z,52.03
2022-08-23T22:56:54.355Z,51.57
2022-08-23T22:59:27.522Z,52.08
2022-08-23T23:02:04.248Z,52.01
2022-08-23T23:04:34.240Z,52.09
2022-08-23T23:07:03.122Z,51.45
2022-08-23T23:09:30.905Z,51.25
2022-08-23T23:11:58.985Z,51.23
2022-08-23T23:14:27.439Z,51.04
2022-08-23T23:16:55.446Z,51.24
2022-08-23T23:19:42.891Z,51.26
2022-08-23T23:22:13.725Z,51.20
2022-08-23T23:24:41.890Z,51.07
2022-08-23T23:27:10.125Z,51.17
2022-08-23T23:29:38.462Z,51.15
2022-08-23T23:32:06.744Z,51.42
2022-08-23T23:34:38.078Z,50.93
2022-08-23T23:37:05.906Z,50.96
2022-08-23T23:39:34.703Z,50.75
2022-08-23T23:42:02.708Z,50.50
2022-08-23T23:44:31.637Z,50.09
2022-08-23T23:47:01.819Z,49.62
2022-08-23T23:49:33.138Z,50.36
2022-08-23T23:52:04.238Z,51.42
2022-08-23T23:54:33.829Z,53.11
2022-08-23T23:57:02.261Z,53.43
2022-08-23T23:59:30.257Z,53.46
